Latest Weather Observations for Kadina

IDS60801

Issued at 9:01 pm CDT Monday 20 February 2017 (issued every 30 minutes, with the page automatically refreshed every 10 minutes)

About weather observations | Map of weather stations | Latest weather observations for SA | Other Formats
Station Details ID: 022050 Name: KADINA AWS Lat: -33.97 Lon: 137.66 Height: 41.14 m
Data from the previous 72 hours. | See also: Recent months at Kadina
Date/Time
CDT
Temp
°C
App
Temp
°C
Dew
Point
°C
Rel
Hum
%
Delta-T
°C
Wind Press
QNH
hPa
Press
MSL
hPa
Rain since
9am
mm
Dir  Spd
km/h
Gust
km/h
Spd
kts
Gust
kts
20/09:00pm 15.8 12.6 9.9 68 3.1 SE 17 17 9 9 1018.3 1018.0 0.0
20/08:30pm 17.0 13.8 10.1 64 3.6 SE 17 20 9 11 1018.2 1018.0 0.0
20/08:00pm 18.4 14.9 10.3 59 4.3 SE 19 26 10 14 1017.8 1017.6 0.0
20/07:30pm 19.6 15.6 10.3 55 5.0 SSE 22 28 12 15 1017.3 1017.1 0.0
20/07:00pm 21.0 17.4 9.9 49 6.0 SSE 19 24 10 13 1017.0 1016.8 0.0
20/06:30pm 21.9 18.7 9.8 46 6.5 SSE 17 22 9 12 1016.7 1016.5 0.0
20/06:00pm 22.9 19.2 10.0 44 7.0 SSW 20 41 11 22 1016.5 1016.3 0.0
20/05:30pm 22.1 16.5 11.5 51 5.9 WSW 32 41 17 22 1016.2 1016.0 0.0
20/05:00pm 21.7 15.8 10.5 49 6.1 WSW 32 43 17 23 1016.1 1015.9 0.0
20/04:30pm 22.1 16.0 9.6 45 6.7 WSW 32 39 17 21 1016.2 1016.0 0.0
20/04:00pm 22.1 16.6 9.3 44 6.9 WSW 28 39 15 21 1016.4 1016.2 0.0
20/03:30pm 22.1 17.0 9.3 44 6.9 WSW 26 35 14 19 1016.6 1016.4 0.0
20/03:00pm 22.4 17.7 9.2 43 7.1 WSW 24 33 13 18 1016.7 1016.5 0.0
20/02:30pm 22.7 18.4 9.5 43 7.1 SW 22 35 12 19 1017.0 1016.8 0.0
20/02:00pm 22.7 18.9 9.8 44 7.0 WSW 20 30 11 16 1017.2 1017.0 0.0
20/01:30pm 21.6 17.2 8.8 44 6.8 SW 22 32 12 17 1017.4 1017.2 0.0
20/01:00pm 21.3 18.7 9.2 46 6.5 W 13 30 7 16 1017.6 1017.4 0.0
20/12:30pm 20.5 16.4 8.5 46 6.3 NW 20 30 11 16 1018.0 1017.8 0.0
20/12:00pm 20.9 18.6 7.5 42 6.9 SSE 9 17 5 9 1018.3 1018.1 0.0
20/11:30am 19.5 17.8 8.2 48 5.8 SSE 7 13 4 7 1018.4 1018.2 0.0
20/11:00am 19.4 16.8 7.8 47 6.0 SSE 11 19 6 10 1018.6 1018.4 0.0
20/10:30am 19.0 16.2 8.6 51 5.4 SSE 13 19 7 10 1018.8 1018.6 0.0
20/10:00am 18.2 15.9 10.3 60 4.2 SE 13 19 7 10 1018.9 1018.7 0.0
20/09:30am 16.9 15.1 10.7 67 3.3 ESE 11 15 6 8 1019.0 1018.8 0.0
20/09:00am 15.9 14.2 11.1 73 2.6 E 11 15 6 8 1019.1 1018.9 0.0
20/08:30am 14.8 12.5 10.6 76 2.2 ESE 13 17 7 9 1019.0 1018.8 0.0
20/08:00am 12.8 11.3 10.7 87 1.1 E 9 13 5 7 1018.7 1018.5 0.0
20/07:30am 10.8 9.4 9.4 91 0.7 SE 7 9 4 5 1018.3 1018.1 0.0
20/07:00am 10.2 8.2 8.8 91 0.7 SSE 9 11 5 6 1017.7 1017.5 0.0
20/06:30am 9.6 6.7 8.0 90 0.8 SE 13 13 7 7 1017.4 1017.2 0.0
20/06:00am 9.4 6.8 7.7 89 0.8 SE 11 13 6 7 1017.2 1017.0 0.0
20/05:30am 11.0 9.4 8.9 87 1.0 SE 7 9 4 5 1017.3 1017.1 0.0
20/05:00am 12.2 10.0 9.2 82 1.5 SSE 11 13 6 7 1016.9 1016.7 0.0
20/04:30am 14.0 11.6 10.0 77 2.1 SSE 13 19 7 10 1016.9 1016.7 0.0
20/04:00am 14.4 12.4 10.2 76 2.2 S 11 15 6 8 1016.9 1016.7 0.0
20/03:30am 14.9 11.7 10.1 73 2.5 SSE 17 20 9 11 1016.8 1016.6 0.0
20/03:00am 15.2 12.5 10.4 73 2.5 SSE 15 19 8 10 1016.8 1016.6 0.0
20/02:30am 15.2 12.1 10.4 73 2.5 S 17 24 9 13 1017.0 1016.8 0.0
20/02:00am 14.8 11.4 10.6 76 2.2 S 19 24 10 13 1017.2 1017.0 0.0
20/01:30am 14.6 11.2 10.6 77 2.1 SSE 19 20 10 11 1017.3 1017.1 0.0
20/01:00am 14.9 12.5 11.3 79 1.9 S 15 20 8 11 1017.5 1017.3 0.0
20/12:30am 14.2 12.2 11.4 83 1.5 SSW 13 17 7 9 1017.6 1017.4 0.0
20/12:00am 13.4 11.9 10.4 82 1.6 S 9 9 5 5 1017.6 1017.4 0.0
 
Date/Time
CDT
Temp
°C
App
Temp
°C
Dew
Point
°C
Rel
Hum
%
Delta-T
°C
Wind Press
QNH
hPa
Press
MSL
hPa
Rain since
9am
mm
Dir  Spd
km/h
Gust
km/h
Spd
kts
Gust
kts
19/11:30pm 14.7 12.1 10.7 77 2.1 S 15 17 8 9 1017.7 1017.5 0.0
19/11:00pm 16.3 14.3 11.5 73 2.6 SSW 13 20 7 11 1017.9 1017.7 0.0
19/10:30pm 16.1 13.1 11.9 76 2.3 SW 19 24 10 13 1018.0 1017.8 0.0
19/10:00pm 16.6 13.2 11.3 71 2.9 SSW 20 26 11 14 1018.0 1017.8 0.0
19/09:30pm 16.8 13.4 11.1 69 3.1 SSW 20 28 11 15 1017.8 1017.6 0.0
19/09:00pm 16.9 12.7 11.0 68 3.2 SSW 24 32 13 17 1017.4 1017.2 0.0
19/08:30pm 17.2 13.1 11.5 69 3.1 SSW 24 33 13 18 1017.3 1017.1 0.0
19/08:00pm 17.3 12.0 11.1 67 3.4 SW 30 37 16 20 1017.0 1016.8 0.0
19/07:30pm 17.3 12.1 10.4 64 3.7 SW 28 39 15 21 1016.8 1016.6 0.0
19/07:00pm 18.4 13.6 11.5 64 3.8 SW 28 41 15 22 1016.7 1016.5 0.0
19/06:30pm 18.5 13.9 11.1 62 4.0 SW 26 33 14 18 1016.7 1016.5 0.0
19/06:00pm 18.5 12.4 10.3 59 4.4 SW 33 43 18 23 1016.5 1016.3 0.0
19/05:30pm 18.2 11.4 10.6 61 4.1 SW 37 46 20 25 1016.5 1016.3 0.0
19/05:00pm 19.5 13.4 10.5 56 4.9 SW 33 46 18 25 1016.6 1016.4 0.0
19/04:30pm 19.1 12.8 11.2 60 4.3 SW 35 44 19 24 1016.7 1016.5 0.0
19/04:00pm 19.8 14.3 10.5 55 5.0 SW 30 43 16 23 1016.8 1016.6 0.0
19/03:30pm 19.5 14.6 11.3 59 4.5 SSW 28 41 15 22 1017.1 1016.9 0.0
19/03:14pm 19.5 14.1 10.8 57 4.7 SW 30 54 16 29 1017.0 1016.8 0.0
19/03:00pm 20.5 15.3 8.8 47 6.2 SSW 26 39 14 21 1017.2 1017.0 0.0
19/02:30pm 19.3 12.6 9.5 53 5.2 SW 35 48 19 26 1017.4 1017.2 0.0
19/02:00pm 19.6 13.4 11.4 59 4.5 SW 35 46 19 25 1017.4 1017.2 0.0
19/01:30pm 21.0 15.3 8.3 44 6.6 SSW 28 35 15 19 1017.4 1017.2 0.0
19/01:00pm 20.0 14.0 10.1 53 5.3 SW 32 44 17 24 1017.5 1017.3 0.0
19/12:30pm 20.4 14.3 8.4 46 6.3 SW 30 41 16 22 1017.8 1017.6 0.0
19/12:00pm 21.0 15.1 7.6 42 6.9 SW 28 43 15 23 1017.8 1017.6 0.0
19/11:30am 19.5 14.4 9.1 51 5.5 SSW 26 39 14 21 1018.2 1018.0 0.0
19/11:00am 18.8 13.9 8.5 51 5.3 SSW 24 35 13 19 1018.4 1018.2 0.0
19/10:30am 18.2 14.1 8.7 54 4.9 SSW 20 32 11 17 1018.3 1018.1 0.0
19/10:00am 17.9 13.8 8.5 54 4.8 S 20 30 11 16 1018.1 1017.9 0.0
19/09:30am 17.8 13.7 8.6 55 4.7 S 20 32 11 17 1018.1 1017.9 0.0
19/09:00am 16.8 12.4 8.8 59 4.1 S 22 28 12 15 1017.9 1017.7 0.8
19/08:30am 16.3 12.5 9.7 65 3.4 SSE 20 24 11 13 1017.8 1017.6 0.8
19/08:00am 15.6 12.2 9.3 66 3.3 SSE 17 20 9 11 1017.8 1017.6 0.8
19/07:30am 14.5 12.2 9.1 70 2.8 SSE 11 13 6 7 1017.9 1017.7 0.8
19/07:00am 14.1 11.4 8.9 71 2.6 SSE 13 15 7 8 1017.7 1017.5 0.8
19/06:30am 14.1 10.6 8.7 70 2.7 S 17 22 9 12 1017.3 1017.1 0.8
19/06:00am 14.1 11.0 8.9 71 2.6 SSE 15 17 8 9 1017.2 1017.0 0.8
19/05:30am 13.9 11.1 8.7 71 2.6 SSE 13 17 7 9 1017.0 1016.8 0.8
19/05:00am 13.7 10.5 8.5 71 2.6 SSE 15 20 8 11 1017.0 1016.8 0.8
19/04:30am 13.0 9.7 8.1 72 2.4 S 15 19 8 10 1017.0 1016.8 0.8
19/04:00am 12.9 10.1 8.4 74 2.2 SSE 13 15 7 8 1017.1 1016.9 0.8
19/03:30am 12.8 9.9 8.1 73 2.3 S 13 15 7 8 1017.2 1017.0 0.8
19/03:00am 13.8 10.3 8.6 71 2.6 SSE 17 20 9 11 1017.3 1017.1 0.8
19/02:30am 13.4 10.6 8.5 72 2.4 SSE 13 15 7 8 1017.7 1017.5 0.8
19/02:00am 13.8 11.1 9.0 73 2.4 SSE 13 17 7 9 1018.0 1017.8 0.8
19/01:30am 13.9 10.5 9.3 74 2.3 SSE 17 20 9 11 1018.5 1018.3 0.8
19/01:00am 14.3 8.5 8.0 66 3.1 S 28 37 15 20 1018.4 1018.2 0.8
19/12:30am 13.4 9.7 8.0 70 2.7 S 17 20 9 11 1018.3 1018.1 0.8
19/12:00am 11.5 7.5 6.8 73 2.2 S 17 19 9 10 1018.2 1018.0 0.8
 
Date/Time
CDT
Temp
°C
App
Temp
°C
Dew
Point
°C
Rel
Hum
%
Delta-T
°C
Wind Press
QNH
hPa
Press
MSL
hPa
Rain since
9am
mm
Dir  Spd
km/h
Gust
km/h
Spd
kts
Gust
kts
18/11:30pm 13.1 9.2 6.9 66 3.0 S 17 20 9 11 1018.2 1018.0 0.8
18/11:00pm 14.3 9.8 7.1 62 3.5 S 20 24 11 13 1018.2 1018.0 0.8
18/10:30pm 13.9 9.6 7.0 63 3.4 S 19 26 10 14 1018.2 1018.0 0.8
18/10:00pm 13.4 9.5 7.0 65 3.1 S 17 19 9 10 1018.2 1018.0 0.8
18/09:30pm 14.0 9.7 6.8 62 3.5 SSW 19 22 10 12 1018.0 1017.8 0.8
18/09:00pm 14.9 10.1 7.2 60 3.8 SSW 22 30 12 16 1017.8 1017.6 0.8
18/08:30pm 15.5 10.2 8.3 62 3.6 SSW 26 33 14 18 1017.4 1017.2 0.8
18/08:00pm 16.2 10.8 7.9 58 4.2 SSW 26 35 14 19 1016.9 1016.7 0.8
18/07:30pm 17.0 10.2 7.6 54 4.7 SSW 33 43 18 23 1016.6 1016.4 0.8
18/07:00pm 18.4 11.9 8.1 51 5.3 SSW 32 39 17 21 1016.3 1016.1 0.8
18/06:30pm 18.5 11.6 7.3 48 5.7 SW 33 46 18 25 1016.2 1016.0 0.8
18/06:00pm 19.3 11.7 7.7 47 5.9 SSW 37 46 20 25 1016.1 1015.9 0.8
18/05:30pm 19.4 12.2 7.8 47 6.0 SSW 35 46 19 25 1016.0 1015.8 0.8
18/05:00pm 19.7 11.8 7.8 46 6.1 SSW 39 50 21 27 1016.1 1015.9 0.8
18/04:30pm 18.2 10.0 8.2 52 5.1 SW 41 54 22 29 1016.3 1016.1 0.8
18/04:00pm 19.7 12.2 7.8 46 6.1 SW 37 52 20 28 1016.3 1016.1 0.8
18/03:41pm 20.2 13.1 6.2 40 7.0 SW 33 52 18 28 1016.4 1016.2 0.6
18/03:30pm 20.4 13.8 8.4 46 6.3 SW 33 44 18 24 1016.6 1016.4 0.6
18/03:05pm 19.4 13.1 9.0 51 5.5 SSW 32 50 17 27 1016.8 1016.6 0.6
18/03:00pm 19.6 12.8 9.2 51 5.5 SSW 35 46 19 25 1017.0 1016.8 0.6
18/02:30pm 19.4 12.2 9.0 51 5.5 SW 37 50 20 27 1016.9 1016.7 0.6
18/02:05pm 19.0 11.7 8.9 52 5.3 SW 37 57 20 31 1016.8 1016.6 0.6
18/02:00pm 19.0 12.0 8.6 51 5.4 SW 35 52 19 28 1017.0 1016.8 0.6
18/01:30pm 18.5 11.9 10.1 58 4.5 SSW 35 50 19 27 1016.8 1016.6 0.6
18/01:00pm 17.1 10.6 11.6 70 3.0 SSW 37 50 20 27 1016.8 1016.6 0.6
18/12:51pm 17.6 13.8 12.5 72 2.8 SSW 24 44 13 24 1016.9 1016.7 0.6
18/12:30pm 16.1 14.6 13.0 82 1.7 SW 13 19 7 10 1017.3 1017.1 0.6
18/12:00pm 16.9 11.1 11.6 71 2.9 SW 33 46 18 25 1017.5 1017.3 0.0
18/11:30am 19.2 12.2 7.0 45 6.2 SW 33 41 18 22 1016.7 1016.5 0.0
18/11:00am 20.2 13.3 7.2 43 6.6 SSW 33 50 18 27 1016.5 1016.3 0.0
18/10:30am 19.0 11.7 7.4 47 5.9 SW 35 48 19 26 1016.6 1016.4 0.0
18/10:00am 18.6 12.4 7.7 49 5.6 SSW 30 39 16 21 1016.8 1016.6 0.0
18/09:30am 18.2 11.4 7.6 50 5.4 SW 33 43 18 23 1016.6 1016.4 0.0
18/09:00am 18.1 13.7 7.5 50 5.4 SSW 20 35 11 19 1016.3 1016.1 0.0
18/08:30am 16.4 12.0 10.3 67 3.2 S 24 32 13 17 1016.5 1016.3 0.0
18/08:00am 16.3 10.7 10.2 67 3.2 SSW 30 41 16 22 1016.0 1015.8 0.0
18/07:30am 16.6 11.8 8.8 60 4.0 SSW 24 30 13 16 1015.4 1015.2 0.0
18/07:00am 16.3 11.2 6.2 51 4.9 SSW 22 30 12 16 1014.9 1014.7 0.0
18/06:30am 16.6 11.3 6.7 52 4.9 SSW 24 33 13 18 1014.5 1014.3 0.0
18/06:00am 14.9 11.3 8.4 65 3.3 SSW 17 20 9 11 1014.6 1014.4 0.0
18/05:30am 15.7 12.7 10.5 71 2.8 S 17 22 9 12 1014.5 1014.3 0.0
18/05:00am 15.5 12.4 11.7 78 2.1 SSW 19 24 10 13 1014.5 1014.3 0.0
18/04:30am 15.2 13.3 11.8 80 1.8 SSE 13 17 7 9 1014.5 1014.3 0.0
18/04:00am 15.0 14.1 12.7 86 1.3 SSE 9 11 5 6 1014.7 1014.5 0.0
18/03:30am 14.9 14.1 12.8 87 1.2 S 9 13 5 7 1014.6 1014.4 0.0
18/03:00am 15.4 12.3 12.2 81 1.7 S 20 28 11 15 1014.7 1014.5 0.0
18/02:30am 13.6 12.4 11.5 87 1.1 ESE 9 11 5 6 1014.8 1014.6 0.0
18/02:00am 14.3 14.7 11.3 82 1.6 CALM 0 2 0 1 1015.1 1014.9 0.0
18/01:30am 14.4 12.8 11.6 83 1.5 SE 11 13 6 7 1015.3 1015.1 0.0
18/01:00am 15.0 13.2 12.0 82 1.6 SSE 13 17 7 9 1015.4 1015.2 0.0
18/12:30am 15.4 13.6 12.0 80 1.8 S 13 15 7 8 1015.5 1015.3 0.0
18/12:00am 15.4 13.7 12.3 82 1.7 S 13 19 7 10 1015.5 1015.3 0.0
 
Date/Time
CDT
Temp
°C
App
Temp
°C
Dew
Point
°C
Rel
Hum
%
Delta-T
°C
Wind Press
QNH
hPa
Press
MSL
hPa
Rain since
9am
mm
Dir  Spd
km/h
Gust
km/h
Spd
kts
Gust
kts
17/11:30pm 15.9 13.3 11.9 77 2.2 S 17 19 9 10 1015.3 1015.1 0.0
17/11:00pm 17.2 13.4 12.3 73 2.7 S 24 30 13 16 1015.5 1015.3 0.0
17/10:30pm 17.8 14.4 11.4 66 3.5 SSW 20 26 11 14 1015.7 1015.5 0.0
17/10:00pm 17.4 15.3 12.3 72 2.8 SSW 15 20 8 11 1015.8 1015.6 0.0
17/09:30pm 17.9 14.9 12.4 70 3.1 SSW 20 26 11 14 1015.6 1015.4 0.0

Other Formats:

Comma delimited format used in spreadsheet applications
http://www.bom.gov.au/fwo/IDS60801/IDS60801.94685.axf

JavaScript Object Notation format (JSON) in row-major order
http://www.bom.gov.au/fwo/IDS60801/IDS60801.94685.json